sensor_id;sensor_type;location;lat;lon;timestamp;temperature;humidity
27671;DHT22;15077;49.704;9.908;2023-02-11T00:02:01;3.80;64.50
27671;DHT22;15077;49.704;9.908;2023-02-11T00:04:29;3.90;64.40
27671;DHT22;15077;49.704;9.908;2023-02-11T00:06:56;3.90;64.40
27671;DHT22;15077;49.704;9.908;2023-02-11T00:09:22;3.90;64.40
27671;DHT22;15077;49.704;9.908;2023-02-11T00:11:48;3.90;64.30
27671;DHT22;15077;49.704;9.908;2023-02-11T00:14:14;4.00;64.30
27671;DHT22;15077;49.704;9.908;2023-02-11T00:16:39;4.00;64.20
27671;DHT22;15077;49.704;9.908;2023-02-11T00:19:05;4.00;64.20
27671;DHT22;15077;49.704;9.908;2023-02-11T00:21:31;4.00;64.20
27671;DHT22;15077;49.704;9.908;2023-02-11T00:23:58;4.00;64.20
27671;DHT22;15077;49.704;9.908;2023-02-11T00:26:30;4.00;64.10
27671;DHT22;15077;49.704;9.908;2023-02-11T00:28:58;4.00;64.30
27671;DHT22;15077;49.704;9.908;2023-02-11T00:31:26;4.00;64.30
27671;DHT22;15077;49.704;9.908;2023-02-11T00:33:53;4.00;64.20
27671;DHT22;15077;49.704;9.908;2023-02-11T00:36:25;4.00;64.20
27671;DHT22;15077;49.704;9.908;2023-02-11T00:38:53;4.00;64.20
27671;DHT22;15077;49.704;9.908;2023-02-11T00:41:21;4.00;64.20
27671;DHT22;15077;49.704;9.908;2023-02-11T00:43:47;4.00;64.30
27671;DHT22;15077;49.704;9.908;2023-02-11T00:46:15;4.00;64.20
27671;DHT22;15077;49.704;9.908;2023-02-11T00:48:41;4.00;64.40
27671;DHT22;15077;49.704;9.908;2023-02-11T00:51:07;4.00;64.30
27671;DHT22;15077;49.704;9.908;2023-02-11T00:53:35;4.00;64.40
27671;DHT22;15077;49.704;9.908;2023-02-11T00:56:01;4.00;64.30
27671;DHT22;15077;49.704;9.908;2023-02-11T00:58:27;4.00;64.30
27671;DHT22;15077;49.704;9.908;2023-02-11T01:00:54;4.00;64.40
27671;DHT22;15077;49.704;9.908;2023-02-11T01:03:21;4.00;64.60
27671;DHT22;15077;49.704;9.908;2023-02-11T01:05:46;3.90;64.50
27671;DHT22;15077;49.704;9.908;2023-02-11T01:08:12;4.00;64.60
27671;DHT22;15077;49.704;9.908;2023-02-11T01:10:38;4.00;64.60
27671;DHT22;15077;49.704;9.908;2023-02-11T01:13:04;4.00;64.70
27671;DHT22;15077;49.704;9.908;2023-02-11T01:15:31;4.00;64.70
27671;DHT22;15077;49.704;9.908;2023-02-11T01:17:57;4.00;64.70
27671;DHT22;15077;49.704;9.908;2023-02-11T01:20:26;4.00;64.60
27671;DHT22;15077;49.704;9.908;2023-02-11T01:22:52;4.00;64.80
27671;DHT22;15077;49.704;9.908;2023-02-11T01:25:18;4.00;64.70
27671;DHT22;15077;49.704;9.908;2023-02-11T01:27:44;4.00;64.70
27671;DHT22;15077;49.704;9.908;2023-02-11T01:30:12;4.10;64.90
27671;DHT22;15077;49.704;9.908;2023-02-11T01:32:39;4.10;64.90
27671;DHT22;15077;49.704;9.908;2023-02-11T01:35:06;4.10;65.00
27671;DHT22;15077;49.704;9.908;2023-02-11T01:37:37;4.00;64.90
27671;DHT22;15077;49.704;9.908;2023-02-11T01:40:07;4.10;65.00
27671;DHT22;15077;49.704;9.908;2023-02-11T01:42:38;4.10;65.20
27671;DHT22;15077;49.704;9.908;2023-02-11T01:48:14;4.00;65.40
27671;DHT22;15077;49.704;9.908;2023-02-11T01:50:59;4.10;65.40
27671;DHT22;15077;49.704;9.908;2023-02-11T01:53:29;4.00;65.40
27671;DHT22;15077;49.704;9.908;2023-02-11T01:56:15;4.00;65.30
27671;DHT22;15077;49.704;9.908;2023-02-11T01:59:09;4.00;65.30
27671;DHT22;15077;49.704;9.908;2023-02-11T02:01:55;4.00;65.40
27671;DHT22;15077;49.704;9.908;2023-02-11T02:04:25;4.00;65.30
27671;DHT22;15077;49.704;9.908;2023-02-11T02:07:02;4.00;65.30
27671;DHT22;15077;49.704;9.908;2023-02-11T02:09:42;4.00;66.10
27671;DHT22;15077;49.704;9.908;2023-02-11T02:12:13;4.00;65.50
27671;DHT22;15077;49.704;9.908;2023-02-11T02:14:40;4.00;65.40
27671;DHT22;15077;49.704;9.908;2023-02-11T02:17:09;4.00;65.40
27671;DHT22;15077;49.704;9.908;2023-02-11T02:20:09;4.00;65.40
27671;DHT22;15077;49.704;9.908;2023-02-11T02:23:10;4.00;65.70
27671;DHT22;15077;49.704;9.908;2023-02-11T02:26:14;4.00;65.90
27671;DHT22;15077;49.704;9.908;2023-02-11T02:40:52;4.00;66.20
27671;DHT22;15077;49.704;9.908;2023-02-11T02:43:23;4.00;66.10
27671;DHT22;15077;49.704;9.908;2023-02-11T02:45:51;4.00;65.90
27671;DHT22;15077;49.704;9.908;2023-02-11T02:48:29;4.10;66.00
27671;DHT22;15077;49.704;9.908;2023-02-11T03:06:37;4.20;66.10
27671;DHT22;15077;49.704;9.908;2023-02-11T03:09:26;4.20;66.20
27671;DHT22;15077;49.704;9.908;2023-02-11T03:11:58;4.20;66.20
27671;DHT22;15077;49.704;9.908;2023-02-11T03:14:27;4.20;66.20
27671;DHT22;15077;49.704;9.908;2023-02-11T03:16:56;4.20;66.10
27671;DHT22;15077;49.704;9.908;2023-02-11T03:19:30;4.20;66.00
27671;DHT22;15077;49.704;9.908;2023-02-11T03:22:04;4.20;66.20
27671;DHT22;15077;49.704;9.908;2023-02-11T03:24:37;4.20;66.00
27671;DHT22;15077;49.704;9.908;2023-02-11T03:30:27;4.30;66.30
27671;DHT22;15077;49.704;9.908;2023-02-11T03:33:12;4.30;66.20
27671;DHT22;15077;49.704;9.908;2023-02-11T03:35:59;4.30;66.10
27671;DHT22;15077;49.704;9.908;2023-02-11T03:38:36;4.40;66.10
27671;DHT22;15077;49.704;9.908;2023-02-11T03:41:08;4.40;66.20
27671;DHT22;15077;49.704;9.908;2023-02-11T03:43:41;4.40;66.30
27671;DHT22;15077;49.704;9.908;2023-02-11T03:46:10;4.30;66.60
27671;DHT22;15077;49.704;9.908;2023-02-11T03:48:42;4.30;66.70
27671;DHT22;15077;49.704;9.908;2023-02-11T03:51:13;4.30;66.50
27671;DHT22;15077;49.704;9.908;2023-02-11T03:53:43;4.30;66.40
27671;DHT22;15077;49.704;9.908;2023-02-11T03:56:16;4.40;66.40
27671;DHT22;15077;49.704;9.908;2023-02-11T03:58:45;4.40;66.40
27671;DHT22;15077;49.704;9.908;2023-02-11T04:01:12;4.40;66.30
27671;DHT22;15077;49.704;9.908;2023-02-11T04:03:39;4.40;66.30
27671;DHT22;15077;49.704;9.908;2023-02-11T04:06:05;4.40;66.30
27671;DHT22;15077;49.704;9.908;2023-02-11T04:08:31;4.40;66.40
27671;DHT22;15077;49.704;9.908;2023-02-11T04:10:57;4.50;66.40
27671;DHT22;15077;49.704;9.908;2023-02-11T04:13:23;4.50;66.50
27671;DHT22;15077;49.704;9.908;2023-02-11T04:15:49;4.50;66.50
27671;DHT22;15077;49.704;9.908;2023-02-11T04:18:15;4.50;66.40
27671;DHT22;15077;49.704;9.908;2023-02-11T04:20:42;4.50;66.40
27671;DHT22;15077;49.704;9.908;2023-02-11T04:23:07;4.50;66.20
27671;DHT22;15077;49.704;9.908;2023-02-11T04:25:34;4.50;66.20
27671;DHT22;15077;49.704;9.908;2023-02-11T04:28:01;4.60;66.20
27671;DHT22;15077;49.704;9.908;2023-02-11T04:30:26;4.60;66.20
27671;DHT22;15077;49.704;9.908;2023-02-11T04:32:52;4.60;66.20
27671;DHT22;15077;49.704;9.908;2023-02-11T04:35:19;4.60;66.20
27671;DHT22;15077;49.704;9.908;2023-02-11T04:37:45;4.60;66.10
27671;DHT22;15077;49.704;9.908;2023-02-11T04:40:11;4.60;66.10
27671;DHT22;15077;49.704;9.908;2023-02-11T04:42:37;4.60;66.00
27671;DHT22;15077;49.704;9.908;2023-02-11T04:45:03;4.60;66.00
27671;DHT22;15077;49.704;9.908;2023-02-11T04:47:29;4.60;66.00
27671;DHT22;15077;49.704;9.908;2023-02-11T04:49:55;4.70;66.10
27671;DHT22;15077;49.704;9.908;2023-02-11T04:52:21;4.70;66.10
27671;DHT22;15077;49.704;9.908;2023-02-11T04:54:46;4.70;66.10
27671;DHT22;15077;49.704;9.908;2023-02-11T04:57:13;4.70;66.10
27671;DHT22;15077;49.704;9.908;2023-02-11T04:59:40;4.70;66.20
27671;DHT22;15077;49.704;9.908;2023-02-11T05:02:07;4.70;66.20
27671;DHT22;15077;49.704;9.908;2023-02-11T05:04:35;4.70;66.20
27671;DHT22;15077;49.704;9.908;2023-02-11T05:07:02;4.70;66.20
27671;DHT22;15077;49.704;9.908;2023-02-11T05:09:27;4.70;66.20
27671;DHT22;15077;49.704;9.908;2023-02-11T05:11:53;4.70;66.10
27671;DHT22;15077;49.704;9.908;2023-02-11T05:14:19;4.80;66.20
27671;DHT22;15077;49.704;9.908;2023-02-11T05:16:46;4.70;66.00
27671;DHT22;15077;49.704;9.908;2023-02-11T05:19:12;4.70;66.20
27671;DHT22;15077;49.704;9.908;2023-02-11T05:21:37;4.70;66.10
27671;DHT22;15077;49.704;9.908;2023-02-11T05:24:04;4.70;66.10
27671;DHT22;15077;49.704;9.908;2023-02-11T05:26:31;4.70;66.10
27671;DHT22;15077;49.704;9.908;2023-02-11T05:28:57;4.70;66.30
27671;DHT22;15077;49.704;9.908;2023-02-11T05:31:23;4.70;66.40
27671;DHT22;15077;49.704;9.908;2023-02-11T05:33:49;4.70;66.40
27671;DHT22;15077;49.704;9.908;2023-02-11T05:36:14;4.70;66.40
27671;DHT22;15077;49.704;9.908;2023-02-11T05:38:41;4.60;66.40
27671;DHT22;15077;49.704;9.908;2023-02-11T05:41:08;4.60;66.30
27671;DHT22;15077;49.704;9.908;2023-02-11T05:43:35;4.60;66.50
27671;DHT22;15077;49.704;9.908;2023-02-11T05:46:03;4.60;66.50
27671;DHT22;15077;49.704;9.908;2023-02-11T05:48:31;4.60;66.70
27671;DHT22;15077;49.704;9.908;2023-02-11T05:50:57;4.60;66.70
27671;DHT22;15077;49.704;9.908;2023-02-11T05:53:22;4.60;66.60
27671;DHT22;15077;49.704;9.908;2023-02-11T05:55:48;4.60;66.80
27671;DHT22;15077;49.704;9.908;2023-02-11T05:58:14;4.60;66.70
27671;DHT22;15077;49.704;9.908;2023-02-11T06:00:40;4.60;66.60
27671;DHT22;15077;49.704;9.908;2023-02-11T06:03:05;4.60;66.70
27671;DHT22;15077;49.704;9.908;2023-02-11T06:05:32;4.60;66.70
27671;DHT22;15077;49.704;9.908;2023-02-11T06:07:58;4.60;66.60
27671;DHT22;15077;49.704;9.908;2023-02-11T06:10:24;4.60;66.50
27671;DHT22;15077;49.704;9.908;2023-02-11T06:12:50;4.60;66.60
27671;DHT22;15077;49.704;9.908;2023-02-11T06:15:16;4.60;66.50
27671;DHT22;15077;49.704;9.908;2023-02-11T06:17:41;4.60;66.50
27671;DHT22;15077;49.704;9.908;2023-02-11T06:20:08;4.60;66.40
27671;DHT22;15077;49.704;9.908;2023-02-11T06:22:35;4.60;66.40
27671;DHT22;15077;49.704;9.908;2023-02-11T06:25:01;4.60;66.30
27671;DHT22;15077;49.704;9.908;2023-02-11T06:27:26;4.50;66.30
27671;DHT22;15077;49.704;9.908;2023-02-11T06:29:52;4.50;66.40
27671;DHT22;15077;49.704;9.908;2023-02-11T06:32:18;4.60;66.30
27671;DHT22;15077;49.704;9.908;2023-02-11T06:34:44;4.50;66.50
27671;DHT22;15077;49.704;9.908;2023-02-11T06:37:13;4.50;66.50
27671;DHT22;15077;49.704;9.908;2023-02-11T06:39:43;4.60;66.60
27671;DHT22;15077;49.704;9.908;2023-02-11T06:42:09;4.50;66.50
27671;DHT22;15077;49.704;9.908;2023-02-11T06:44:35;4.50;66.50
27671;DHT22;15077;49.704;9.908;2023-02-11T06:47:01;4.50;66.50
27671;DHT22;15077;49.704;9.908;2023-02-11T06:49:26;4.50;66.50
27671;DHT22;15077;49.704;9.908;2023-02-11T06:51:52;4.50;67.20
27671;DHT22;15077;49.704;9.908;2023-02-11T06:54:18;4.50;66.70
27671;DHT22;15077;49.704;9.908;2023-02-11T06:56:44;4.50;66.80
27671;DHT22;15077;49.704;9.908;2023-02-11T06:59:15;4.50;66.80
27671;DHT22;15077;49.704;9.908;2023-02-11T07:01:42;4.50;67.10
27671;DHT22;15077;49.704;9.908;2023-02-11T07:04:08;4.50;66.80
27671;DHT22;15077;49.704;9.908;2023-02-11T07:06:34;4.50;66.70
27671;DHT22;15077;49.704;9.908;2023-02-11T07:09:03;4.50;66.70
27671;DHT22;15077;49.704;9.908;2023-02-11T07:11:29;4.60;66.80
27671;DHT22;15077;49.704;9.908;2023-02-11T07:14:00;4.60;66.70
27671;DHT22;15077;49.704;9.908;2023-02-11T07:16:29;4.60;66.80
27671;DHT22;15077;49.704;9.908;2023-02-11T07:18:57;4.60;66.70
27671;DHT22;15077;49.704;9.908;2023-02-11T07:21:23;4.60;66.70
27671;DHT22;15077;49.704;9.908;2023-02-11T07:23:49;4.70;67.30
27671;DHT22;15077;49.704;9.908;2023-02-11T07:26:20;4.70;66.70
27671;DHT22;15077;49.704;9.908;2023-02-11T07:28:49;4.70;66.90
27671;DHT22;15077;49.704;9.908;2023-02-11T07:31:18;4.70;66.80
27671;DHT22;15077;49.704;9.908;2023-02-11T07:33:46;4.80;67.00
27671;DHT22;15077;49.704;9.908;2023-02-11T07:36:13;4.70;67.10
27671;DHT22;15077;49.704;9.908;2023-02-11T07:38:40;4.80;67.00
27671;DHT22;15077;49.704;9.908;2023-02-11T07:41:09;4.80;67.10
27671;DHT22;15077;49.704;9.908;2023-02-11T07:43:38;4.80;67.10
27671;DHT22;15077;49.704;9.908;2023-02-11T07:46:07;4.80;67.00
27671;DHT22;15077;49.704;9.908;2023-02-11T07:48:37;4.90;67.10
27671;DHT22;15077;49.704;9.908;2023-02-11T07:51:17;4.90;67.10
27671;DHT22;15077;49.704;9.908;2023-02-11T07:53:51;4.90;67.10
27671;DHT22;15077;49.704;9.908;2023-02-11T07:56:21;5.00;67.00
27671;DHT22;15077;49.704;9.908;2023-02-11T07:58:51;5.00;67.10
27671;DHT22;15077;49.704;9.908;2023-02-11T08:01:28;5.10;67.00
27671;DHT22;15077;49.704;9.908;2023-02-11T08:03:58;5.10;66.90
27671;DHT22;15077;49.704;9.908;2023-02-11T08:06:28;5.10;66.90
27671;DHT22;15077;49.704;9.908;2023-02-11T08:09:04;5.10;66.80
27671;DHT22;15077;49.704;9.908;2023-02-11T08:11:34;5.20;67.50
27671;DHT22;15077;49.704;9.908;2023-02-11T08:14:00;5.20;66.70
27671;DHT22;15077;49.704;9.908;2023-02-11T08:16:52;5.20;66.80
27671;DHT22;15077;49.704;9.908;2023-02-11T08:19:21;5.20;66.80
27671;DHT22;15077;49.704;9.908;2023-02-11T08:21:56;5.30;66.80
27671;DHT22;15077;49.704;9.908;2023-02-11T08:24:27;5.30;66.90
27671;DHT22;15077;49.704;9.908;2023-02-11T08:26:56;5.30;66.90
27671;DHT22;15077;49.704;9.908;2023-02-11T08:29:25;5.40;66.80
27671;DHT22;15077;49.704;9.908;2023-02-11T08:31:53;5.40;66.70
27671;DHT22;15077;49.704;9.908;2023-02-11T08:34:19;5.40;66.60
27671;DHT22;15077;49.704;9.908;2023-02-11T08:36:47;5.40;66.50
27671;DHT22;15077;49.704;9.908;2023-02-11T08:39:16;5.50;66.50
27671;DHT22;15077;49.704;9.908;2023-02-11T08:41:47;5.50;66.50
27671;DHT22;15077;49.704;9.908;2023-02-11T08:44:18;5.50;66.50
27671;DHT22;15077;49.704;9.908;2023-02-11T08:46:46;5.50;66.50
27671;DHT22;15077;49.704;9.908;2023-02-11T08:49:21;5.60;66.60
27671;DHT22;15077;49.704;9.908;2023-02-11T08:51:48;5.60;66.80
27671;DHT22;15077;49.704;9.908;2023-02-11T08:54:16;5.60;66.70
27671;DHT22;15077;49.704;9.908;2023-02-11T08:56:43;5.60;66.70
27671;DHT22;15077;49.704;9.908;2023-02-11T08:59:13;5.70;66.60
27671;DHT22;15077;49.704;9.908;2023-02-11T09:01:39;5.70;66.60
27671;DHT22;15077;49.704;9.908;2023-02-11T09:04:06;5.80;66.70
27671;DHT22;15077;49.704;9.908;2023-02-11T09:06:36;5.80;66.60
27671;DHT22;15077;49.704;9.908;2023-02-11T09:09:02;5.90;66.60
27671;DHT22;15077;49.704;9.908;2023-02-11T09:11:35;6.00;66.50
27671;DHT22;15077;49.704;9.908;2023-02-11T09:14:03;6.00;66.40
27671;DHT22;15077;49.704;9.908;2023-02-11T09:16:31;6.10;66.40
27671;DHT22;15077;49.704;9.908;2023-02-11T09:19:00;6.10;66.30
27671;DHT22;15077;49.704;9.908;2023-02-11T09:21:29;6.20;66.40
27671;DHT22;15077;49.704;9.908;2023-02-11T09:23:55;6.30;66.50
27671;DHT22;15077;49.704;9.908;2023-02-11T09:26:26;6.40;66.60
27671;DHT22;15077;49.704;9.908;2023-02-11T09:28:54;6.40;66.40
27671;DHT22;15077;49.704;9.908;2023-02-11T09:31:22;6.60;66.40
27671;DHT22;15077;49.704;9.908;2023-02-11T09:33:56;6.60;66.30
27671;DHT22;15077;49.704;9.908;2023-02-11T09:36:28;6.70;66.30
27671;DHT22;15077;49.704;9.908;2023-02-11T09:39:01;6.80;66.20
27671;DHT22;15077;49.704;9.908;2023-02-11T09:41:40;6.90;66.20
27671;DHT22;15077;49.704;9.908;2023-02-11T09:44:29;7.00;66.30
27671;DHT22;15077;49.704;9.908;2023-02-11T09:47:02;7.10;66.10
27671;DHT22;15077;49.704;9.908;2023-02-11T09:55:38;7.30;65.80
27671;DHT22;15077;49.704;9.908;2023-02-11T09:58:26;7.40;65.70
27671;DHT22;15077;49.704;9.908;2023-02-11T10:01:38;7.50;65.60
27671;DHT22;15077;49.704;9.908;2023-02-11T10:08:02;7.70;65.20
27671;DHT22;15077;49.704;9.908;2023-02-11T10:10:45;7.70;65.10
27671;DHT22;15077;49.704;9.908;2023-02-11T10:22:02;7.90;65.10
27671;DHT22;15077;49.704;9.908;2023-02-11T10:24:37;8.00;65.10
27671;DHT22;15077;49.704;9.908;2023-02-11T10:27:15;8.10;65.00
27671;DHT22;15077;49.704;9.908;2023-02-11T10:29:52;8.10;64.80
27671;DHT22;15077;49.704;9.908;2023-02-11T10:32:30;8.20;64.80
27671;DHT22;15077;49.704;9.908;2023-02-11T10:35:14;8.20;64.80
27671;DHT22;15077;49.704;9.908;2023-02-11T10:37:43;8.30;64.80
27671;DHT22;15077;49.704;9.908;2023-02-11T10:40:17;8.30;64.80
27671;DHT22;15077;49.704;9.908;2023-02-11T10:42:51;8.30;64.80
27671;DHT22;15077;49.704;9.908;2023-02-11T10:45:40;8.40;64.80
27671;DHT22;15077;49.704;9.908;2023-02-11T10:48:44;8.40;64.60
27671;DHT22;15077;49.704;9.908;2023-02-11T10:53:47;8.50;64.60
27671;DHT22;15077;49.704;9.908;2023-02-11T10:56:26;8.50;64.40
27671;DHT22;15077;49.704;9.908;2023-02-11T10:59:14;8.50;64.30
27671;DHT22;15077;49.704;9.908;2023-02-11T11:01:59;8.50;64.10
27671;DHT22;15077;49.704;9.908;2023-02-11T11:04:46;8.50;64.40
27671;DHT22;15077;49.704;9.908;2023-02-11T11:07:26;8.60;64.60
27671;DHT22;15077;49.704;9.908;2023-02-11T11:09:56;8.60;64.30
27671;DHT22;15077;49.704;9.908;2023-02-11T11:15:25;8.60;64.30
27671;DHT22;15077;49.704;9.908;2023-02-11T11:18:13;8.70;64.20
27671;DHT22;15077;49.704;9.908;2023-02-11T11:20:58;8.70;64.20
27671;DHT22;15077;49.704;9.908;2023-02-11T11:23:33;8.70;63.80
27671;DHT22;15077;49.704;9.908;2023-02-11T11:26:07;8.70;63.70
27671;DHT22;15077;49.704;9.908;2023-02-11T11:29:06;8.70;63.90
27671;DHT22;15077;49.704;9.908;2023-02-11T11:31:59;8.80;64.00
27671;DHT22;15077;49.704;9.908;2023-02-11T11:37:35;8.80;63.90
27671;DHT22;15077;49.704;9.908;2023-02-11T11:40:09;8.80;63.80
27671;DHT22;15077;49.704;9.908;2023-02-11T11:43:06;8.80;64.00
27671;DHT22;15077;49.704;9.908;2023-02-11T11:45:52;8.80;64.00
27671;DHT22;15077;49.704;9.908;2023-02-11T11:48:30;8.90;63.90
27671;DHT22;15077;49.704;9.908;2023-02-11T11:51:09;8.90;64.00
27671;DHT22;15077;49.704;9.908;2023-02-11T11:56:26;8.90;63.90
27671;DHT22;15077;49.704;9.908;2023-02-11T11:59:04;8.90;63.90
27671;DHT22;15077;49.704;9.908;2023-02-11T12:10:35;9.00;64.30
27671;DHT22;15077;49.704;9.908;2023-02-11T12:13:39;9.10;64.40
27671;DHT22;15077;49.704;9.908;2023-02-11T12:19:11;9.20;64.40
27671;DHT22;15077;49.704;9.908;2023-02-11T12:21:52;9.20;64.40
27671;DHT22;15077;49.704;9.908;2023-02-11T12:33:25;9.40;64.30
27671;DHT22;15077;49.704;9.908;2023-02-11T12:36:10;9.40;64.30
27671;DHT22;15077;49.704;9.908;2023-02-11T12:44:56;9.60;64.30
27671;DHT22;15077;49.704;9.908;2023-02-11T12:48:09;9.60;64.20
27671;DHT22;15077;49.704;9.908;2023-02-11T12:57:16;9.70;64.00
27671;DHT22;15077;49.704;9.908;2023-02-11T12:59:59;9.70;63.90
27671;DHT22;15077;49.704;9.908;2023-02-11T13:02:35;9.70;63.90
27671;DHT22;15077;49.704;9.908;2023-02-11T13:05:37;9.70;63.90
27671;DHT22;15077;49.704;9.908;2023-02-11T13:11:27;9.80;63.90
27671;DHT22;15077;49.704;9.908;2023-02-11T13:14:39;9.80;64.00
27671;DHT22;15077;49.704;9.908;2023-02-11T13:24:48;10.00;64.00
27671;DHT22;15077;49.704;9.908;2023-02-11T13:27:31;10.00;63.70
27671;DHT22;15077;49.704;9.908;2023-02-11T13:30:24;10.00;63.70
27671;DHT22;15077;49.704;9.908;2023-02-11T13:33:03;10.00;63.90
27671;DHT22;15077;49.704;9.908;2023-02-11T13:38:25;10.00;63.90
27671;DHT22;15077;49.704;9.908;2023-02-11T13:41:03;10.00;64.00
27671;DHT22;15077;49.704;9.908;2023-02-11T13:43:40;10.00;64.00
27671;DHT22;15077;49.704;9.908;2023-02-11T13:46:12;10.00;64.00
27671;DHT22;15077;49.704;9.908;2023-02-11T13:48:48;10.00;64.10
27671;DHT22;15077;49.704;9.908;2023-02-11T13:51:33;10.00;64.20
27671;DHT22;15077;49.704;9.908;2023-02-11T13:54:04;10.00;64.30
27671;DHT22;15077;49.704;9.908;2023-02-11T13:56:38;10.00;64.30
27671;DHT22;15077;49.704;9.908;2023-02-11T14:11:08;10.10;64.50
27671;DHT22;15077;49.704;9.908;2023-02-11T14:14:17;10.10;64.60
27671;DHT22;15077;49.704;9.908;2023-02-11T14:27:41;10.10;64.80
27671;DHT22;15077;49.704;9.908;2023-02-11T14:42:46;10.00;64.80
27671;DHT22;15077;49.704;9.908;2023-02-11T14:45:28;10.00;64.80
27671;DHT22;15077;49.704;9.908;2023-02-11T14:48:13;9.90;64.80
27671;DHT22;15077;49.704;9.908;2023-02-11T14:50:49;9.90;64.80
27671;DHT22;15077;49.704;9.908;2023-02-11T14:53:21;9.90;64.80
27671;DHT22;15077;49.704;9.908;2023-02-11T14:55:52;9.90;64.90
27671;DHT22;15077;49.704;9.908;2023-02-11T14:58:31;9.90;64.80
27671;DHT22;15077;49.704;9.908;2023-02-11T15:01:01;9.90;64.90
27671;DHT22;15077;49.704;9.908;2023-02-11T15:03:39;9.90;64.90
27671;DHT22;15077;49.704;9.908;2023-02-11T15:06:17;9.90;65.00
27671;DHT22;15077;49.704;9.908;2023-02-11T15:11:53;9.90;64.80
27671;DHT22;15077;49.704;9.908;2023-02-11T15:14:32;9.80;64.80
27671;DHT22;15077;49.704;9.908;2023-02-11T15:17:06;9.90;64.90
27671;DHT22;15077;49.704;9.908;2023-02-11T15:19:44;9.90;65.10
27671;DHT22;15077;49.704;9.908;2023-02-11T15:22:22;9.80;65.00
27671;DHT22;15077;49.704;9.908;2023-02-11T15:25:00;9.80;65.10
27671;DHT22;15077;49.704;9.908;2023-02-11T15:27:49;9.80;65.20
27671;DHT22;15077;49.704;9.908;2023-02-11T15:32:58;9.80;65.30
27671;DHT22;15077;49.704;9.908;2023-02-11T15:35:32;9.80;65.40
27671;DHT22;15077;49.704;9.908;2023-02-11T15:38:01;9.70;65.30
27671;DHT22;15077;49.704;9.908;2023-02-11T15:40:34;9.80;65.30
27671;DHT22;15077;49.704;9.908;2023-02-11T15:43:01;9.70;65.30
27671;DHT22;15077;49.704;9.908;2023-02-11T15:45:41;9.70;65.30
27671;DHT22;15077;49.704;9.908;2023-02-11T15:48:36;9.70;65.50
27671;DHT22;15077;49.704;9.908;2023-02-11T15:51:45;9.70;65.50
27671;DHT22;15077;49.704;9.908;2023-02-11T15:54:21;9.70;65.40
27671;DHT22;15077;49.704;9.908;2023-02-11T15:56:53;9.70;65.30
27671;DHT22;15077;49.704;9.908;2023-02-11T15:59:35;9.70;65.40
27671;DHT22;15077;49.704;9.908;2023-02-11T16:04:38;9.70;65.40
27671;DHT22;15077;49.704;9.908;2023-02-11T16:07:04;9.70;65.40
27671;DHT22;15077;49.704;9.908;2023-02-11T16:09:35;9.60;65.40
27671;DHT22;15077;49.704;9.908;2023-02-11T16:12:22;9.70;65.40
27671;DHT22;15077;49.704;9.908;2023-02-11T16:14:51;9.70;65.40
27671;DHT22;15077;49.704;9.908;2023-02-11T16:17:24;9.60;65.30
27671;DHT22;15077;49.704;9.908;2023-02-11T16:19:52;9.70;65.40
27671;DHT22;15077;49.704;9.908;2023-02-11T16:22:23;9.60;65.30
27671;DHT22;15077;49.704;9.908;2023-02-11T16:24:53;9.60;65.40
27671;DHT22;15077;49.704;9.908;2023-02-11T16:27:25;9.60;65.40
27671;DHT22;15077;49.704;9.908;2023-02-11T16:29:55;9.60;65.40
27671;DHT22;15077;49.704;9.908;2023-02-11T16:32:25;9.60;65.40
27671;DHT22;15077;49.704;9.908;2023-02-11T16:34:54;9.50;65.40
27671;DHT22;15077;49.704;9.908;2023-02-11T16:37:25;9.50;65.40
27671;DHT22;15077;49.704;9.908;2023-02-11T16:39:55;9.50;65.40
27671;DHT22;15077;49.704;9.908;2023-02-11T16:42:22;9.50;65.50
27671;DHT22;15077;49.704;9.908;2023-02-11T16:44:48;9.50;65.40
27671;DHT22;15077;49.704;9.908;2023-02-11T16:47:34;9.50;65.50
27671;DHT22;15077;49.704;9.908;2023-02-11T16:50:01;9.50;65.60
27671;DHT22;15077;49.704;9.908;2023-02-11T16:52:27;9.50;65.40
27671;DHT22;15077;49.704;9.908;2023-02-11T16:54:55;9.50;65.50
27671;DHT22;15077;49.704;9.908;2023-02-11T16:57:23;9.50;65.40
27671;DHT22;15077;49.704;9.908;2023-02-11T16:59:50;9.50;65.40
27671;DHT22;15077;49.704;9.908;2023-02-11T17:02:24;9.50;65.40
27671;DHT22;15077;49.704;9.908;2023-02-11T17:04:54;9.40;65.50
27671;DHT22;15077;49.704;9.908;2023-02-11T17:07:23;9.50;65.40
27671;DHT22;15077;49.704;9.908;2023-02-11T17:09:49;9.50;65.40
27671;DHT22;15077;49.704;9.908;2023-02-11T17:12:16;9.40;65.40
27671;DHT22;15077;49.704;9.908;2023-02-11T17:14:43;9.40;65.40
27671;DHT22;15077;49.704;9.908;2023-02-11T17:17:10;9.40;65.50
27671;DHT22;15077;49.704;9.908;2023-02-11T17:19:36;9.40;65.40
27671;DHT22;15077;49.704;9.908;2023-02-11T17:22:02;9.40;65.50
27671;DHT22;15077;49.704;9.908;2023-02-11T17:24:29;9.40;65.50
27671;DHT22;15077;49.704;9.908;2023-02-11T17:26:55;9.40;65.50
27671;DHT22;15077;49.704;9.908;2023-02-11T17:29:23;9.40;65.50
27671;DHT22;15077;49.704;9.908;2023-02-11T17:31:51;9.40;65.50
27671;DHT22;15077;49.704;9.908;2023-02-11T17:34:18;9.40;65.50
27671;DHT22;15077;49.704;9.908;2023-02-11T17:36:45;9.30;65.50
27671;DHT22;15077;49.704;9.908;2023-02-11T17:39:11;9.40;65.50
27671;DHT22;15077;49.704;9.908;2023-02-11T17:41:38;9.30;65.40
27671;DHT22;15077;49.704;9.908;2023-02-11T17:44:06;9.30;65.50
27671;DHT22;15077;49.704;9.908;2023-02-11T17:46:34;9.30;65.60
27671;DHT22;15077;49.704;9.908;2023-02-11T17:49:00;9.30;65.60
27671;DHT22;15077;49.704;9.908;2023-02-11T17:51:33;9.30;65.60
27671;DHT22;15077;49.704;9.908;2023-02-11T17:54:02;9.30;66.30
27671;DHT22;15077;49.704;9.908;2023-02-11T17:56:34;9.20;65.60
27671;DHT22;15077;49.704;9.908;2023-02-11T17:59:02;9.20;65.80
27671;DHT22;15077;49.704;9.908;2023-02-11T18:01:30;9.20;65.80
27671;DHT22;15077;49.704;9.908;2023-02-11T18:03:56;9.20;65.80
27671;DHT22;15077;49.704;9.908;2023-02-11T18:06:22;9.20;65.80
27671;DHT22;15077;49.704;9.908;2023-02-11T18:08:48;9.10;65.80
27671;DHT22;15077;49.704;9.908;2023-02-11T18:11:14;9.10;65.80
27671;DHT22;15077;49.704;9.908;2023-02-11T18:13:41;9.10;65.90
27671;DHT22;15077;49.704;9.908;2023-02-11T18:16:08;9.10;65.90
27671;DHT22;15077;49.704;9.908;2023-02-11T18:18:42;9.10;65.90
27671;DHT22;15077;49.704;9.908;2023-02-11T18:21:13;9.10;65.90
27671;DHT22;15077;49.704;9.908;2023-02-11T18:23:41;9.10;66.10
27671;DHT22;15077;49.704;9.908;2023-02-11T18:26:09;9.00;65.90
27671;DHT22;15077;49.704;9.908;2023-02-11T18:28:35;9.00;66.00
27671;DHT22;15077;49.704;9.908;2023-02-11T18:31:04;9.00;66.00
27671;DHT22;15077;49.704;9.908;2023-02-11T18:33:30;9.10;66.10
27671;DHT22;15077;49.704;9.908;2023-02-11T18:35:56;9.00;66.00
27671;DHT22;15077;49.704;9.908;2023-02-11T18:38:23;9.00;66.00
27671;DHT22;15077;49.704;9.908;2023-02-11T18:40:49;9.00;66.10
27671;DHT22;15077;49.704;9.908;2023-02-11T18:43:17;9.00;66.30
27671;DHT22;15077;49.704;9.908;2023-02-11T18:45:45;9.00;66.20
27671;DHT22;15077;49.704;9.908;2023-02-11T18:48:14;9.00;66.30
27671;DHT22;15077;49.704;9.908;2023-02-11T18:50:44;9.00;66.40